Time;durP1;ratioP1;P1;durP2;ratioP2;P2;SDS_P1;SDS_P2;PMS_P1;PMS_P2;Temp;Humidity;BMP_temperature;BMP_pressure;BME280_temperature;BME280_humidity;BME280_pressure;Samples;Min_cycle;Max_cycle;Signal;HPM_P1;HPM_P2
2023/03/10 00:02:06;;;;;;;4.53;2.85;;;;;;;;;;5054654;28;20496;-62
2023/03/10 00:04:31;;;;;;;5.68;2.75;;;;;;;;;;5054992;28;20025;-59
2023/03/10 00:06:57;;;;;;;4.90;2.90;;;;;;;;;;5054552;28;20040;-59
2023/03/10 00:09:22;;;;;;;4.03;3.10;;;;;;;;;;5054545;28;20086;-59
2023/03/10 00:11:48;;;;;;;2.95;2.63;;;;;;;;;;5054591;28;20039;-61
2023/03/10 00:14:14;;;;;;;4.85;2.90;;;;;;;;;;5054777;28;20488;-60
2023/03/10 00:16:40;;;;;;;4.38;3.10;;;;;;;;;;5054523;28;20049;-60
2023/03/10 00:19:06;;;;;;;3.08;2.30;;;;;;;;;;5054624;28;20064;-63
2023/03/10 00:21:34;;;;;;;5.25;2.88;;;;;;;;;;5042800;28;20438;-62
2023/03/10 00:24:00;;;;;;;4.47;2.50;;;;;;;;;;5034199;28;20030;-60
2023/03/10 00:26:27;;;;;;;4.10;2.53;;;;;;;;;;5034400;28;20087;-62
2023/03/10 00:28:54;;;;;;;6.43;2.90;;;;;;;;;;5034333;28;20029;-64
2023/03/10 00:31:22;;;;;;;4.65;2.60;;;;;;;;;;5051777;28;20025;-64
2023/03/10 00:33:48;;;;;;;4.43;2.90;;;;;;;;;;5052382;28;20060;-63
2023/03/10 00:36:16;;;;;;;5.20;3.03;;;;;;;;;;5053032;28;20045;-65
2023/03/10 00:38:43;;;;;;;5.50;2.78;;;;;;;;;;5052279;28;20032;-63
2023/03/10 00:41:20;;;;;;;3.35;2.78;;;;;;;;;;5053644;28;20108;-54
2023/03/10 00:43:46;;;;;;;4.45;2.80;;;;;;;;;;5053463;28;20025;-54
2023/03/10 00:46:12;;;;;;;6.18;2.63;;;;;;;;;;5052897;28;20033;-59
2023/03/10 00:48:38;;;;;;;6.15;2.75;;;;;;;;;;5054049;28;20109;-58
2023/03/10 00:51:05;;;;;;;2.45;2.22;;;;;;;;;;5054005;28;20435;-58
2023/03/10 00:53:32;;;;;;;4.75;2.80;;;;;;;;;;5054284;28;20116;-56
2023/03/10 00:56:01;;;;;;;6.53;2.75;;;;;;;;;;5053883;28;20039;-55
2023/03/10 00:58:27;;;;;;;4.80;2.90;;;;;;;;;;5050774;28;20044;-58
2023/03/10 01:00:53;;;;;;;6.57;3.15;;;;;;;;;;5039838;28;20025;-52
2023/03/10 01:03:20;;;;;;;5.32;2.72;;;;;;;;;;5051720;28;20075;-54
2023/03/10 01:05:46;;;;;;;3.33;2.67;;;;;;;;;;5053633;28;20032;-56
2023/03/10 01:08:12;;;;;;;2.50;2.28;;;;;;;;;;5053592;28;20031;-53
2023/03/10 01:10:37;;;;;;;2.75;2.50;;;;;;;;;;5053562;28;20024;-60
2023/03/10 01:13:03;;;;;;;4.03;2.80;;;;;;;;;;5053835;28;20071;-58
2023/03/10 01:15:29;;;;;;;3.65;2.90;;;;;;;;;;5053687;28;20544;-58
2023/03/10 01:17:54;;;;;;;3.42;2.50;;;;;;;;;;5053432;28;20381;-55
2023/03/10 01:20:20;;;;;;;5.25;2.67;;;;;;;;;;5051026;28;20094;-58
2023/03/10 01:22:45;;;;;;;5.95;2.70;;;;;;;;;;5052093;28;20108;-57
2023/03/10 01:25:13;;;;;;;3.38;2.75;;;;;;;;;;5051679;28;20033;-57
2023/03/10 01:27:39;;;;;;;3.25;2.72;;;;;;;;;;5052268;28;20028;-53
2023/03/10 01:30:05;;;;;;;5.00;2.70;;;;;;;;;;5053484;28;20054;-55
2023/03/10 01:32:31;;;;;;;4.78;2.60;;;;;;;;;;5052185;28;20028;-51
2023/03/10 01:34:57;;;;;;;3.60;2.25;;;;;;;;;;5050650;28;20021;-55
2023/03/10 01:37:23;;;;;;;3.38;2.30;;;;;;;;;;5052602;28;20049;-59
2023/03/10 01:39:49;;;;;;;4.00;2.60;;;;;;;;;;5052930;28;20040;-58
2023/03/10 01:42:14;;;;;;;3.00;2.58;;;;;;;;;;5053250;28;20024;-58
2023/03/10 01:44:40;;;;;;;3.42;2.70;;;;;;;;;;5052880;28;20027;-62
2023/03/10 01:47:05;;;;;;;4.53;2.60;;;;;;;;;;5053238;28;20027;-57
2023/03/10 01:49:43;;;;;;;3.55;2.40;;;;;;;;;;5053117;28;20033;-55
2023/03/10 01:52:23;;;;;;;3.85;2.83;;;;;;;;;;5053192;28;20035;-58
2023/03/10 01:54:58;;;;;;;3.00;2.63;;;;;;;;;;5052805;28;20021;-56
2023/03/10 01:57:28;;;;;;;5.88;2.80;;;;;;;;;;5052750;28;20808;-55
2023/03/10 01:59:55;;;;;;;2.65;2.25;;;;;;;;;;5052602;28;20060;-57
2023/03/10 02:02:22;;;;;;;3.97;2.58;;;;;;;;;;5051476;28;20021;-53
2023/03/10 02:04:50;;;;;;;3.28;2.30;;;;;;;;;;5052645;28;20052;-64
2023/03/10 02:07:20;;;;;;;3.35;2.38;;;;;;;;;;5052513;28;20377;-63
2023/03/10 02:09:48;;;;;;;3.78;2.33;;;;;;;;;;5052607;28;20025;-63
2023/03/10 02:12:16;;;;;;;3.17;2.50;;;;;;;;;;5052803;28;20056;-55
2023/03/10 02:14:47;;;;;;;3.20;2.50;;;;;;;;;;5052793;28;20021;-55
2023/03/10 02:17:16;;;;;;;3.83;2.70;;;;;;;;;;5052446;28;20104;-55
2023/03/10 02:20:19;;;;;;;3.22;2.42;;;;;;;;;;5052595;28;20028;-53
2023/03/10 02:22:44;;;;;;;2.55;2.35;;;;;;;;;;5052352;28;20103;-59
2023/03/10 02:25:10;;;;;;;3.95;2.58;;;;;;;;;;5052698;28;20112;-52
2023/03/10 02:27:38;;;;;;;3.10;2.60;;;;;;;;;;5052359;28;20480;-54
2023/03/10 02:30:22;;;;;;;2.70;2.28;;;;;;;;;;5052335;28;20029;-54
2023/03/10 02:32:52;;;;;;;2.85;2.40;;;;;;;;;;5052302;28;20037;-52
2023/03/10 02:35:18;;;;;;;3.97;2.60;;;;;;;;;;5052376;28;20021;-54
2023/03/10 02:37:44;;;;;;;3.47;2.70;;;;;;;;;;5052017;28;20041;-54
2023/03/10 02:40:30;;;;;;;3.25;2.47;;;;;;;;;;5052451;28;20067;-55
2023/03/10 02:42:57;;;;;;;3.13;2.38;;;;;;;;;;5052173;28;20151;-63
2023/03/10 02:45:27;;;;;;;2.83;2.42;;;;;;;;;;5052450;28;20048;-63
2023/03/10 02:47:52;;;;;;;2.87;2.50;;;;;;;;;;5054829;28;20489;-60
2023/03/10 02:50:18;;;;;;;3.05;2.30;;;;;;;;;;5056515;28;20323;-62
2023/03/10 02:52:49;;;;;;;3.58;2.40;;;;;;;;;;5056116;28;20025;-61
2023/03/10 02:55:17;;;;;;;3.55;2.67;;;;;;;;;;5056179;28;20024;-56
2023/03/10 02:57:42;;;;;;;4.28;2.40;;;;;;;;;;5056023;28;20028;-59
2023/03/10 03:00:10;;;;;;;3.40;2.40;;;;;;;;;;5054667;28;20102;-53
2023/03/10 03:02:36;;;;;;;3.22;2.40;;;;;;;;;;5056012;28;20432;-60
2023/03/10 03:05:01;;;;;;;2.72;2.42;;;;;;;;;;5056192;28;20032;-61
2023/03/10 03:07:27;;;;;;;3.25;2.50;;;;;;;;;;5055867;28;20485;-54
2023/03/10 03:09:53;;;;;;;3.85;2.53;;;;;;;;;;5055806;28;20158;-55
2023/03/10 03:12:18;;;;;;;4.18;2.33;;;;;;;;;;5055779;28;20028;-57
2023/03/10 03:14:44;;;;;;;3.70;2.30;;;;;;;;;;5055795;28;20032;-62
2023/03/10 03:17:09;;;;;;;4.70;2.53;;;;;;;;;;5055729;28;20033;-61
2023/03/10 03:19:35;;;;;;;2.75;2.25;;;;;;;;;;5055935;28;20029;-61
2023/03/10 03:22:01;;;;;;;3.60;2.50;;;;;;;;;;5055946;28;20029;-58
2023/03/10 03:24:26;;;;;;;2.53;2.33;;;;;;;;;;5055938;28;20045;-62
2023/03/10 03:26:52;;;;;;;2.45;2.17;;;;;;;;;;5055578;28;20053;-59
2023/03/10 03:29:18;;;;;;;2.53;2.13;;;;;;;;;;5055477;28;20112;-59
2023/03/10 03:31:43;;;;;;;3.15;2.40;;;;;;;;;;5055847;28;20025;-60
2023/03/10 03:34:09;;;;;;;2.42;2.22;;;;;;;;;;5055715;28;20431;-58
2023/03/10 03:36:36;;;;;;;3.10;2.42;;;;;;;;;;5055316;28;20464;-56
2023/03/10 03:39:05;;;;;;;2.85;2.30;;;;;;;;;;5055231;28;20036;-59
2023/03/10 03:41:30;;;;;;;5.40;2.30;;;;;;;;;;5055296;28;20075;-56
2023/03/10 03:43:56;;;;;;;2.92;2.25;;;;;;;;;;5055208;28;20051;-52
2023/03/10 03:46:22;;;;;;;3.53;2.30;;;;;;;;;;5055265;28;20032;-56
2023/03/10 03:48:48;;;;;;;3.55;2.45;;;;;;;;;;5055252;28;20036;-54
2023/03/10 03:51:13;;;;;;;3.47;2.55;;;;;;;;;;5055145;28;20033;-54
2023/03/10 03:53:39;;;;;;;3.08;2.30;;;;;;;;;;5055112;28;20082;-57
2023/03/10 03:56:05;;;;;;;4.43;2.72;;;;;;;;;;5055006;28;20025;-60
2023/03/10 03:58:30;;;;;;;3.83;2.33;;;;;;;;;;5054509;28;20029;-61
2023/03/10 04:00:56;;;;;;;2.58;2.20;;;;;;;;;;5054917;28;20500;-59
2023/03/10 04:03:22;;;;;;;2.92;2.20;;;;;;;;;;5054893;28;20021;-63
2023/03/10 04:05:47;;;;;;;3.20;2.22;;;;;;;;;;5055104;28;20160;-62
2023/03/10 04:08:13;;;;;;;2.85;2.20;;;;;;;;;;5054822;28;20564;-63
2023/03/10 04:10:39;;;;;;;2.97;2.30;;;;;;;;;;5054719;28;20112;-57
2023/03/10 04:13:04;;;;;;;2.55;2.15;;;;;;;;;;5054610;28;20056;-56
2023/03/10 04:15:30;;;;;;;2.90;2.38;;;;;;;;;;5054536;28;20021;-55
2023/03/10 04:17:56;;;;;;;2.58;2.22;;;;;;;;;;5054875;28;20036;-54
2023/03/10 04:20:23;;;;;;;3.55;2.30;;;;;;;;;;5054400;28;20033;-54
2023/03/10 04:22:50;;;;;;;2.92;2.28;;;;;;;;;;5054771;28;20162;-53
2023/03/10 04:25:16;;;;;;;3.05;2.10;;;;;;;;;;5054421;28;20017;-58
2023/03/10 04:27:42;;;;;;;2.45;2.15;;;;;;;;;;5053191;28;20027;-57
2023/03/10 04:30:11;;;;;;;3.20;2.20;;;;;;;;;;5054398;28;20021;-54
2023/03/10 04:32:36;;;;;;;2.58;2.17;;;;;;;;;;5054644;28;20024;-59
2023/03/10 04:35:03;;;;;;;2.45;2.20;;;;;;;;;;5054183;28;20384;-61
2023/03/10 04:37:29;;;;;;;3.92;2.30;;;;;;;;;;5054078;28;20049;-60
2023/03/10 04:39:55;;;;;;;3.17;2.20;;;;;;;;;;5054370;28;20037;-61
2023/03/10 04:42:22;;;;;;;3.08;2.20;;;;;;;;;;5054409;28;20104;-54
2023/03/10 04:44:47;;;;;;;2.78;2.13;;;;;;;;;;5054429;28;20036;-55
2023/03/10 04:47:13;;;;;;;3.83;2.00;;;;;;;;;;5053999;28;20078;-53
2023/03/10 04:49:38;;;;;;;2.50;2.30;;;;;;;;;;5053895;28;20056;-57
2023/03/10 04:52:04;;;;;;;2.92;2.15;;;;;;;;;;5054195;28;20017;-53
2023/03/10 04:54:30;;;;;;;2.83;2.00;;;;;;;;;;5054206;28;20025;-51
2023/03/10 04:56:56;;;;;;;2.90;2.20;;;;;;;;;;5053891;28;20392;-56
2023/03/10 04:59:21;;;;;;;3.15;2.42;;;;;;;;;;5053757;28;20074;-53
2023/03/10 05:01:47;;;;;;;3.25;2.22;;;;;;;;;;5054058;28;20057;-54
2023/03/10 05:04:13;;;;;;;3.13;2.58;;;;;;;;;;5053763;28;20025;-54
2023/03/10 05:06:38;;;;;;;4.50;3.03;;;;;;;;;;5053671;28;20025;-62
2023/03/10 05:09:04;;;;;;;4.05;2.80;;;;;;;;;;5052817;28;20021;-55
2023/03/10 05:11:31;;;;;;;3.00;2.42;;;;;;;;;;5053288;28;20043;-52
2023/03/10 05:13:57;;;;;;;3.40;2.50;;;;;;;;;;5053569;28;20060;-60
2023/03/10 05:16:22;;;;;;;3.78;2.80;;;;;;;;;;5053694;28;20075;-62
2023/03/10 05:18:48;;;;;;;2.90;2.45;;;;;;;;;;5051895;28;20159;-57
2023/03/10 05:21:14;;;;;;;3.47;2.33;;;;;;;;;;5052884;28;20064;-60
2023/03/10 05:23:40;;;;;;;3.45;2.70;;;;;;;;;;5053596;28;20035;-61
2023/03/10 05:26:08;;;;;;;2.90;2.38;;;;;;;;;;5052974;28;20041;-60
2023/03/10 05:28:34;;;;;;;3.38;2.45;;;;;;;;;;5053131;28;20465;-61
2023/03/10 05:31:00;;;;;;;2.97;2.42;;;;;;;;;;5053197;28;20126;-56
2023/03/10 05:33:25;;;;;;;3.85;2.35;;;;;;;;;;5053024;28;20036;-57
2023/03/10 05:35:51;;;;;;;3.70;2.50;;;;;;;;;;5052770;28;20037;-56
2023/03/10 05:38:17;;;;;;;2.90;2.50;;;;;;;;;;5053079;28;20048;-58
2023/03/10 05:40:43;;;;;;;2.67;2.47;;;;;;;;;;5052803;28;20033;-62
2023/03/10 05:43:10;;;;;;;2.65;2.35;;;;;;;;;;5053239;28;20033;-58
2023/03/10 05:45:36;;;;;;;2.60;2.40;;;;;;;;;;5052126;28;20102;-53
2023/03/10 05:48:01;;;;;;;3.63;2.70;;;;;;;;;;5051257;28;20474;-56
2023/03/10 05:50:28;;;;;;;3.42;2.70;;;;;;;;;;5050858;28;20060;-55
2023/03/10 05:52:53;;;;;;;2.85;2.40;;;;;;;;;;5050857;28;20492;-55
2023/03/10 05:55:20;;;;;;;5.13;2.53;;;;;;;;;;5051055;28;20056;-55
2023/03/10 05:57:46;;;;;;;3.88;2.55;;;;;;;;;;5050936;28;20021;-56
2023/03/10 06:00:13;;;;;;;2.72;2.40;;;;;;;;;;5050961;28;20094;-55
2023/03/10 06:02:39;;;;;;;2.80;2.47;;;;;;;;;;5051698;28;20035;-55
2023/03/10 06:05:07;;;;;;;3.28;2.60;;;;;;;;;;5052518;28;20020;-53
2023/03/10 06:07:34;;;;;;;3.22;2.47;;;;;;;;;;5052506;28;20025;-60
2023/03/10 06:10:00;;;;;;;2.47;2.28;;;;;;;;;;5052779;28;20120;-55
2023/03/10 06:12:25;;;;;;;2.85;2.58;;;;;;;;;;5052466;28;20052;-53
2023/03/10 06:14:51;;;;;;;2.88;2.47;;;;;;;;;;5052478;28;20021;-56
2023/03/10 06:17:16;;;;;;;3.05;2.70;;;;;;;;;;5052720;28;20500;-54
2023/03/10 06:19:42;;;;;;;3.80;2.90;;;;;;;;;;5052550;28;20484;-57
2023/03/10 06:22:08;;;;;;;4.53;2.50;;;;;;;;;;5052161;28;20098;-57
2023/03/10 06:24:34;;;;;;;2.88;2.30;;;;;;;;;;5052384;28;20495;-60
2023/03/10 06:27:00;;;;;;;3.05;2.55;;;;;;;;;;5052281;28;20033;-56
2023/03/10 06:29:25;;;;;;;3.38;2.58;;;;;;;;;;5051383;28;20037;-56
2023/03/10 06:31:51;;;;;;;3.75;2.47;;;;;;;;;;5052365;28;20021;-54
2023/03/10 06:34:17;;;;;;;3.90;2.70;;;;;;;;;;5052208;28;20536;-56
2023/03/10 06:36:43;;;;;;;2.40;2.20;;;;;;;;;;5052054;28;20112;-57
2023/03/10 06:39:08;;;;;;;3.35;2.63;;;;;;;;;;5052120;28;20117;-56
2023/03/10 06:41:35;;;;;;;2.50;2.30;;;;;;;;;;5052067;28;20029;-55
2023/03/10 06:44:01;;;;;;;3.25;2.60;;;;;;;;;;5052047;28;20037;-57
2023/03/10 06:46:27;;;;;;;3.78;2.70;;;;;;;;;;5052087;28;20021;-55
2023/03/10 06:48:54;;;;;;;2.85;2.28;;;;;;;;;;5052163;28;20048;-57
2023/03/10 06:51:21;;;;;;;3.55;2.60;;;;;;;;;;5052023;28;20500;-56
2023/03/10 06:53:48;;;;;;;3.80;2.40;;;;;;;;;;5051972;28;20381;-53
2023/03/10 06:56:19;;;;;;;4.32;2.20;;;;;;;;;;5050930;28;20017;-56
2023/03/10 06:58:45;;;;;;;4.22;2.70;;;;;;;;;;5052294;28;20100;-56
2023/03/10 07:01:27;;;;;;;3.00;2.45;;;;;;;;;;5051996;28;20048;-56
2023/03/10 07:03:53;;;;;;;2.60;2.40;;;;;;;;;;5051890;28;20028;-55
2023/03/10 07:06:20;;;;;;;2.40;2.20;;;;;;;;;;5052291;28;20048;-61
2023/03/10 07:08:45;;;;;;;3.22;2.60;;;;;;;;;;5051860;28;20074;-56
2023/03/10 07:11:11;;;;;;;3.75;2.40;;;;;;;;;;5051911;28;20469;-57
2023/03/10 07:13:37;;;;;;;3.10;2.42;;;;;;;;;;5051897;28;20189;-58
2023/03/10 07:16:03;;;;;;;3.63;2.60;;;;;;;;;;5051894;28;20163;-55
2023/03/10 07:18:29;;;;;;;3.80;2.58;;;;;;;;;;5051666;28;20025;-57
2023/03/10 07:20:56;;;;;;;2.85;2.38;;;;;;;;;;5051979;28;20052;-60
2023/03/10 07:23:22;;;;;;;2.85;2.40;;;;;;;;;;5051668;28;20501;-59
2023/03/10 07:25:53;;;;;;;2.88;2.35;;;;;;;;;;5051678;28;20025;-61
2023/03/10 07:28:18;;;;;;;3.22;2.58;;;;;;;;;;5051992;28;20491;-61
2023/03/10 07:30:44;;;;;;;2.50;2.30;;;;;;;;;;5051727;28;20052;-59
2023/03/10 07:33:10;;;;;;;2.60;2.10;;;;;;;;;;5053403;28;20029;-59
2023/03/10 07:35:35;;;;;;;3.20;2.60;;;;;;;;;;5055102;28;20020;-60
2023/03/10 07:38:01;;;;;;;2.90;2.35;;;;;;;;;;5055569;28;20025;-59
2023/03/10 07:40:27;;;;;;;3.45;2.35;;;;;;;;;;5055331;28;20124;-57
2023/03/10 07:42:53;;;;;;;3.10;2.58;;;;;;;;;;5055327;28;20251;-58
2023/03/10 07:45:19;;;;;;;2.58;2.30;;;;;;;;;;5053878;28;20028;-57
2023/03/10 07:47:45;;;;;;;3.17;2.45;;;;;;;;;;5054036;28;20024;-57
2023/03/10 07:50:11;;;;;;;3.67;2.72;;;;;;;;;;5055558;28;20075;-56
2023/03/10 07:52:37;;;;;;;2.88;2.47;;;;;;;;;;5055114;28;20033;-63
2023/03/10 07:55:03;;;;;;;2.90;2.42;;;;;;;;;;5055061;28;20028;-59
2023/03/10 07:57:28;;;;;;;2.95;2.53;;;;;;;;;;5054995;28;20032;-54
2023/03/10 07:59:54;;;;;;;3.45;2.70;;;;;;;;;;5054981;28;20033;-56
2023/03/10 08:02:19;;;;;;;4.05;2.80;;;;;;;;;;5054894;28;20079;-54
2023/03/10 08:04:45;;;;;;;2.67;2.35;;;;;;;;;;5054708;28;20049;-62
2023/03/10 08:07:11;;;;;;;3.05;2.50;;;;;;;;;;5054776;28;20029;-56
2023/03/10 08:09:36;;;;;;;3.60;2.67;;;;;;;;;;5054788;28;20028;-62
2023/03/10 08:12:03;;;;;;;3.75;2.58;;;;;;;;;;5055118;28;20532;-56
2023/03/10 08:14:30;;;;;;;3.00;2.35;;;;;;;;;;5054715;28;20024;-54
2023/03/10 08:16:55;;;;;;;4.72;2.92;;;;;;;;;;5054950;28;20104;-54
2023/03/10 08:19:22;;;;;;;3.08;2.70;;;;;;;;;;5054516;28;20443;-57
2023/03/10 08:21:48;;;;;;;3.70;2.70;;;;;;;;;;5054541;28;20119;-56
2023/03/10 08:24:14;;;;;;;4.35;2.60;;;;;;;;;;5054530;28;20098;-57
2023/03/10 08:26:39;;;;;;;3.22;2.30;;;;;;;;;;5054453;28;20029;-56
2023/03/10 08:29:05;;;;;;;2.70;2.25;;;;;;;;;;5054720;28;20028;-57
2023/03/10 08:31:30;;;;;;;3.70;2.63;;;;;;;;;;5054399;28;20432;-58
2023/03/10 08:33:57;;;;;;;2.60;2.17;;;;;;;;;;5054519;28;20031;-58
2023/03/10 08:36:29;;;;;;;3.92;2.75;;;;;;;;;;5054119;28;20123;-57
2023/03/10 08:38:56;;;;;;;2.67;2.47;;;;;;;;;;5054294;28;20035;-55
2023/03/10 08:41:26;;;;;;;5.45;2.95;;;;;;;;;;5054127;28;20032;-56
2023/03/10 08:43:54;;;;;;;3.55;2.75;;;;;;;;;;5054058;28;20032;-57
2023/03/10 08:46:23;;;;;;;2.83;2.40;;;;;;;;;;5054167;28;20025;-59
2023/03/10 08:48:49;;;;;;;2.67;2.40;;;;;;;;;;5054401;28;20025;-57
2023/03/10 08:51:15;;;;;;;2.60;2.40;;;;;;;;;;5054033;28;20035;-57
2023/03/10 08:53:41;;;;;;;2.85;2.63;;;;;;;;;;5054296;28;20384;-57
2023/03/10 08:56:07;;;;;;;3.88;2.55;;;;;;;;;;5053870;28;20017;-58
2023/03/10 08:58:33;;;;;;;3.10;2.60;;;;;;;;;;5053812;28;20024;-58
2023/03/10 09:00:58;;;;;;;4.03;2.47;;;;;;;;;;5052484;28;20072;-61
2023/03/10 09:03:25;;;;;;;3.10;2.63;;;;;;;;;;5053689;28;20362;-59
2023/03/10 09:05:50;;;;;;;3.42;2.60;;;;;;;;;;5053615;28;20037;-60
2023/03/10 09:08:16;;;;;;;2.70;2.45;;;;;;;;;;5052419;28;20029;-59
2023/03/10 09:10:43;;;;;;;3.40;2.67;;;;;;;;;;5053627;28;20021;-57
2023/03/10 09:13:09;;;;;;;3.30;2.85;;;;;;;;;;5053576;28;20151;-56
2023/03/10 09:15:39;;;;;;;2.80;2.47;;;;;;;;;;5053467;28;20107;-59
2023/03/10 09:18:10;;;;;;;3.65;2.97;;;;;;;;;;5053838;28;20013;-57
2023/03/10 09:20:36;;;;;;;;;;;;;;;;;;5053844;28;20033;-58
2023/03/10 09:23:02;;;;;;;4.03;2.80;;;;;;;;;;5053375;28;19922;-57
2023/03/10 09:25:28;;;;;;;3.20;2.47;;;;;;;;;;5053634;28;20373;-59
2023/03/10 09:27:53;;;;;;;4.15;2.88;;;;;;;;;;5051689;28;20029;-58
2023/03/10 09:30:19;;;;;;;3.53;2.53;;;;;;;;;;5051821;28;20021;-57
2023/03/10 09:32:44;;;;;;;3.25;2.45;;;;;;;;;;5052028;28;20029;-59
2023/03/10 09:35:11;;;;;;;5.45;2.80;;;;;;;;;;5051105;28;20036;-60
2023/03/10 09:37:37;;;;;;;3.80;2.53;;;;;;;;;;5050771;28;20060;-64
2023/03/10 09:40:05;;;;;;;2.90;2.55;;;;;;;;;;5048652;28;20021;-64
2023/03/10 09:42:50;;;;;;;3.67;2.80;;;;;;;;;;5047569;28;20381;-63
2023/03/10 09:45:46;;;;;;;3.30;2.75;;;;;;;;;;5047125;28;20041;-60
2023/03/10 09:48:29;;;;;;;3.90;2.67;;;;;;;;;;5048502;28;20025;-59
2023/03/10 09:50:55;;;;;;;3.30;2.60;;;;;;;;;;5051603;28;20029;-61
2023/03/10 09:53:26;;;;;;;5.72;2.85;;;;;;;;;;5051480;28;20033;-62
2023/03/10 09:55:52;;;;;;;3.25;2.70;;;;;;;;;;5051311;28;20060;-60
2023/03/10 09:58:32;;;;;;;3.95;2.80;;;;;;;;;;5052805;28;20120;-59
2023/03/10 10:00:59;;;;;;;3.10;2.67;;;;;;;;;;5052784;28;20450;-60
2023/03/10 10:03:38;;;;;;;4.75;3.38;;;;;;;;;;5050599;28;20045;-60
2023/03/10 10:06:05;;;;;;;5.15;2.97;;;;;;;;;;5049716;28;20032;-61
2023/03/10 10:08:42;;;;;;;5.03;2.85;;;;;;;;;;5028319;28;20026;-60
2023/03/10 10:11:16;;;;;;;3.80;2.83;;;;;;;;;;5030996;28;20035;-61
2023/03/10 10:13:42;;;;;;;3.40;2.90;;;;;;;;;;5031273;28;20031;-60
2023/03/10 10:16:21;;;;;;;4.72;2.50;;;;;;;;;;5030794;28;20481;-61
2023/03/10 10:19:13;;;;;;;4.53;3.07;;;;;;;;;;5030898;28;20112;-60
2023/03/10 10:22:08;;;;;;;3.60;2.95;;;;;;;;;;5030580;28;20049;-60
2023/03/10 10:24:34;;;;;;;4.25;2.90;;;;;;;;;;5021390;28;20096;-60
2023/03/10 10:26:59;;;;;;;4.25;2.95;;;;;;;;;;5030672;28;20022;-59
2023/03/10 10:29:31;;;;;;;4.47;2.88;;;;;;;;;;5030589;28;20034;-60
2023/03/10 10:32:11;;;;;;;4.10;2.72;;;;;;;;;;5031078;28;20033;-59
2023/03/10 10:34:39;;;;;;;3.58;2.67;;;;;;;;;;5030757;28;20034;-60
2023/03/10 10:37:31;;;;;;;5.07;2.97;;;;;;;;;;5030375;28;20486;-60
2023/03/10 10:39:59;;;;;;;3.17;2.60;;;;;;;;;;5030208;28;20548;-60
2023/03/10 10:42:30;;;;;;;3.13;2.80;;;;;;;;;;5030455;28;20033;-60
2023/03/10 10:45:02;;;;;;;4.03;3.08;;;;;;;;;;5046039;28;20120;-60
2023/03/10 10:47:29;;;;;;;5.80;3.28;;;;;;;;;;5050729;28;20104;-60
2023/03/10 10:50:27;;;;;;;4.40;3.10;;;;;;;;;;5050312;28;20025;-60
2023/03/10 10:53:14;;;;;;;5.68;3.35;;;;;;;;;;5049964;28;20041;-60
2023/03/10 10:55:41;;;;;;;3.63;2.88;;;;;;;;;;5050476;28;20093;-60
2023/03/10 10:58:31;;;;;;;3.53;2.80;;;;;;;;;;5050255;28;20095;-60
2023/03/10 11:01:03;;;;;;;5.90;3.40;;;;;;;;;;5050621;28;20424;-61
2023/03/10 11:03:40;;;;;;;4.18;2.80;;;;;;;;;;5050298;28;20536;-60
2023/03/10 11:06:33;;;;;;;4.15;3.17;;;;;;;;;;5050360;28;20377;-61
2023/03/10 11:09:12;;;;;;;6.03;3.58;;;;;;;;;;5050105;28;20130;-60
2023/03/10 11:11:52;;;;;;;5.13;3.50;;;;;;;;;;5054176;28;20029;-60
2023/03/10 11:14:53;;;;;;;4.80;3.60;;;;;;;;;;5052836;28;20072;-60
2023/03/10 11:17:32;;;;;;;4.57;3.25;;;;;;;;;;5031695;28;20095;-60
2023/03/10 11:20:01;;;;;;;4.95;3.65;;;;;;;;;;5051260;28;20041;-59
2023/03/10 11:22:45;;;;;;;3.38;2.90;;;;;;;;;;5052418;28;20025;-60
2023/03/10 11:25:11;;;;;;;5.53;3.70;;;;;;;;;;5053998;28;20029;-60
2023/03/10 11:28:00;;;;;;;6.15;3.70;;;;;;;;;;5053889;28;20183;-60
2023/03/10 11:30:31;;;;;;;4.80;3.70;;;;;;;;;;5046255;28;20098;-60
2023/03/10 11:33:20;;;;;;;8.35;3.60;;;;;;;;;;5034201;28;20022;-59
2023/03/10 11:36:10;;;;;;;5.35;3.85;;;;;;;;;;5033416;28;20064;-61
2023/03/10 11:38:43;;;;;;;5.38;3.55;;;;;;;;;;5026295;28;20472;-61
2023/03/10 11:41:15;;;;;;;8.77;3.80;;;;;;;;;;5033615;28;20041;-61
2023/03/10 11:44:03;;;;;;;4.63;3.30;;;;;;;;;;5033741;28;20098;-60
2023/03/10 11:46:50;;;;;;;5.68;3.47;;;;;;;;;;5033458;28;20049;-60
2023/03/10 11:49:18;;;;;;;5.63;3.55;;;;;;;;;;5033709;28;20030;-60
2023/03/10 11:51:51;;;;;;;5.93;3.50;;;;;;;;;;5048922;28;20029;-60
2023/03/10 11:54:27;;;;;;;4.93;3.47;;;;;;;;;;5033353;28;20021;-60
2023/03/10 11:56:54;;;;;;;5.07;3.75;;;;;;;;;;5033834;28;20045;-60
2023/03/10 11:59:27;;;;;;;6.28;3.60;;;;;;;;;;5033481;28;20021;-59
2023/03/10 12:02:14;;;;;;;5.93;3.17;;;;;;;;;;5049608;28;20033;-60
2023/03/10 12:04:57;;;;;;;3.78;3.08;;;;;;;;;;5046827;28;20037;-59
2023/03/10 12:07:45;;;;;;;4.95;3.50;;;;;;;;;;5033305;28;20060;-59
2023/03/10 12:10:10;;;;;;;4.40;3.10;;;;;;;;;;5032893;28;20037;-59
2023/03/10 12:12:42;;;;;;;4.63;3.17;;;;;;;;;;5033118;28;20029;-59
2023/03/10 12:15:18;;;;;;;6.05;3.28;;;;;;;;;;5033431;28;20123;-59
2023/03/10 12:17:45;;;;;;;4.63;3.20;;;;;;;;;;5048433;28;20032;-60
2023/03/10 12:20:14;;;;;;;4.22;3.30;;;;;;;;;;5032388;28;20029;-60
2023/03/10 12:22:49;;;;;;;4.80;3.13;;;;;;;;;;5033078;28;20026;-59
2023/03/10 12:25:27;;;;;;;4.28;3.20;;;;;;;;;;5031666;28;20362;-60
2023/03/10 12:28:31;;;;;;;3.83;3.28;;;;;;;;;;5032953;28;20535;-60
2023/03/10 12:31:30;;;;;;;4.88;3.03;;;;;;;;;;5032750;28;20037;-59
2023/03/10 12:34:22;;;;;;;5.03;3.17;;;;;;;;;;5032830;28;20032;-59
2023/03/10 12:37:21;;;;;;;6.32;3.08;;;;;;;;;;5032571;28;20042;-61
2023/03/10 12:39:46;;;;;;;3.22;2.80;;;;;;;;;;5027615;28;20045;-62
2023/03/10 12:42:32;;;;;;;5.20;2.85;;;;;;;;;;5032858;28;20100;-61
2023/03/10 12:45:04;;;;;;;3.97;2.90;;;;;;;;;;5031211;28;20025;-59
2023/03/10 12:47:36;;;;;;;3.67;3.03;;;;;;;;;;5032542;28;20030;-61
2023/03/10 12:50:02;;;;;;;3.55;2.67;;;;;;;;;;5032506;28;20560;-59
2023/03/10 12:52:33;;;;;;;4.13;2.53;;;;;;;;;;5032235;28;20040;-59
2023/03/10 12:55:24;;;;;;;3.30;2.78;;;;;;;;;;5032664;28;20381;-60
2023/03/10 12:57:57;;;;;;;4.53;2.97;;;;;;;;;;5032263;28;20030;-59
2023/03/10 13:00:46;;;;;;;4.75;3.20;;;;;;;;;;5032138;28;20029;-59
2023/03/10 13:03:23;;;;;;;6.27;3.20;;;;;;;;;;5032121;28;20498;-60
2023/03/10 13:06:00;;;;;;;3.20;2.80;;;;;;;;;;5032574;28;20270;-60
2023/03/10 13:08:43;;;;;;;5.15;2.88;;;;;;;;;;5031895;28;20021;-60
2023/03/10 13:11:22;;;;;;;5.97;2.80;;;;;;;;;;5039899;28;20091;-59
2023/03/10 13:13:57;;;;;;;4.05;2.97;;;;;;;;;;5050391;28;20052;-59
2023/03/10 13:16:23;;;;;;;4.82;3.13;;;;;;;;;;5048729;28;20031;-59
2023/03/10 13:18:53;;;;;;;4.57;3.28;;;;;;;;;;5050555;28;20052;-59
2023/03/10 13:21:31;;;;;;;4.40;2.78;;;;;;;;;;5050155;28;20039;-60
2023/03/10 13:24:04;;;;;;;5.03;2.90;;;;;;;;;;5051177;28;20037;-60
2023/03/10 13:26:30;;;;;;;4.30;3.00;;;;;;;;;;5049885;28;20033;-60
2023/03/10 13:28:58;;;;;;;5.38;2.70;;;;;;;;;;5050447;28;20091;-61
2023/03/10 13:31:27;;;;;;;4.07;3.15;;;;;;;;;;5048303;28;20021;-61
2023/03/10 13:33:55;;;;;;;4.10;3.47;;;;;;;;;;5050155;28;20055;-60
2023/03/10 13:36:37;;;;;;;5.85;3.03;;;;;;;;;;5050979;28;20041;-61
2023/03/10 13:39:12;;;;;;;3.17;2.55;;;;;;;;;;5051712;28;20029;-60
2023/03/10 13:41:39;;;;;;;3.78;2.90;;;;;;;;;;5051286;28;20082;-60
2023/03/10 13:44:14;;;;;;;3.03;2.67;;;;;;;;;;5051485;28;20108;-60
2023/03/10 13:46:46;;;;;;;3.58;2.70;;;;;;;;;;5051654;28;20025;-60
2023/03/10 13:49:16;;;;;;;5.63;2.90;;;;;;;;;;5051435;28;20029;-61
2023/03/10 13:52:00;;;;;;;5.13;3.30;;;;;;;;;;5051172;28;20052;-60
2023/03/10 13:54:29;;;;;;;4.22;3.00;;;;;;;;;;5051025;28;20047;-60
2023/03/10 13:57:21;;;;;;;4.90;2.80;;;;;;;;;;5051234;28;20481;-60
2023/03/10 13:59:47;;;;;;;3.38;2.83;;;;;;;;;;5047762;28;20508;-61
2023/03/10 14:02:25;;;;;;;4.65;2.60;;;;;;;;;;5050455;28;20029;-59
2023/03/10 14:04:52;;;;;;;3.85;2.80;;;;;;;;;;5033293;28;20092;-61
2023/03/10 14:07:24;;;;;;;3.58;2.80;;;;;;;;;;5051025;28;20405;-61
2023/03/10 14:10:02;;;;;;;5.10;2.90;;;;;;;;;;5050686;28;20035;-62
2023/03/10 14:12:36;;;;;;;3.75;2.90;;;;;;;;;;5051238;28;20643;-61
2023/03/10 14:15:18;;;;;;;4.78;3.20;;;;;;;;;;5051129;28;20028;-59
2023/03/10 14:17:46;;;;;;;4.50;2.63;;;;;;;;;;5047844;28;20041;-58
2023/03/10 14:20:29;;;;;;;4.20;3.00;;;;;;;;;;5049371;28;20031;-59
2023/03/10 14:22:54;;;;;;;4.05;2.75;;;;;;;;;;5051197;28;20381;-58
2023/03/10 14:25:21;;;;;;;3.47;2.70;;;;;;;;;;5050918;28;20025;-59
2023/03/10 14:28:05;;;;;;;2.97;2.60;;;;;;;;;;5049690;28;20036;-59
2023/03/10 14:30:32;;;;;;;4.03;2.70;;;;;;;;;;5050650;28;20044;-59
2023/03/10 14:33:00;;;;;;;4.68;3.13;;;;;;;;;;5050948;28;20079;-60
2023/03/10 14:35:27;;;;;;;5.05;3.05;;;;;;;;;;5050615;28;20025;-59
2023/03/10 14:37:53;;;;;;;3.53;2.83;;;;;;;;;;5050008;28;20111;-59
2023/03/10 14:40:21;;;;;;;4.30;3.00;;;;;;;;;;5050735;28;20029;-59
2023/03/10 14:42:49;;;;;;;3.30;2.83;;;;;;;;;;5034841;28;20473;-59
2023/03/10 14:45:27;;;;;;;3.13;2.80;;;;;;;;;;5037205;28;20504;-57
2023/03/10 14:47:55;;;;;;;4.55;3.45;;;;;;;;;;5037227;28;20021;-59
2023/03/10 14:50:22;;;;;;;4.50;3.30;;;;;;;;;;5037253;28;20025;-59
2023/03/10 14:52:48;;;;;;;5.20;3.20;;;;;;;;;;5037117;28;20512;-60
2023/03/10 14:55:14;;;;;;;2.85;2.65;;;;;;;;;;5039906;28;20036;-58
2023/03/10 14:57:41;;;;;;;5.07;2.83;;;;;;;;;;5054760;28;20017;-58
2023/03/10 15:00:13;;;;;;;3.90;3.10;;;;;;;;;;5037216;28;20409;-59